createdAt,value
2023-05-07T00:03:50.175Z,100772.25
2023-05-07T00:08:51.114Z,100764.50
2023-05-07T00:13:51.889Z,100770.63
2023-05-07T00:18:54.273Z,100769.75
2023-05-07T00:23:55.003Z,100773.06
2023-05-07T00:28:55.726Z,100771.34
2023-05-07T00:33:57.751Z,100771.25
2023-05-07T00:39:00.981Z,100771.16
2023-05-07T00:44:02.614Z,100780.03
2023-05-07T00:49:04.726Z,100777.34
2023-05-07T00:54:05.997Z,100773.84
2023-05-07T00:59:07.774Z,100767.84
2023-05-07T01:04:09.847Z,100769.50
2023-05-07T01:09:10.999Z,100776.38
2023-05-07T01:14:12.253Z,100771.97
2023-05-07T01:19:17.121Z,100773.69
2023-05-07T01:24:20.169Z,100783.25
2023-05-07T01:29:20.934Z,100778.91
2023-05-07T01:34:24.407Z,100786.69
2023-05-07T01:39:26.958Z,100779.75
2023-05-07T01:44:28.925Z,100784.09
2023-05-07T01:49:29.929Z,100784.13
2023-05-07T01:54:31.937Z,100788.38
2023-05-07T01:59:33.576Z,100782.38
2023-05-07T02:04:34.281Z,100787.69
2023-05-07T02:09:36.799Z,100787.59
2023-05-07T02:14:37.941Z,100785.91
2023-05-07T02:19:38.589Z,100786.72
2023-05-07T02:24:40.695Z,100795.38
2023-05-07T02:29:41.456Z,100798.94
2023-05-07T02:34:42.249Z,100798.97
2023-05-07T02:39:44.276Z,100803.25
2023-05-07T02:44:44.939Z,100798.03
2023-05-07T02:49:46.090Z,100800.75
2023-05-07T02:54:49.080Z,100799.91
2023-05-07T02:59:49.793Z,100799.91
2023-05-07T03:04:52.036Z,100807.72
2023-05-07T03:09:54.666Z,100802.75
2023-05-07T03:14:55.376Z,100800.97
2023-05-07T03:19:56.151Z,100801.81
2023-05-07T03:24:58.348Z,100813.91
2023-05-07T03:29:58.985Z,100810.50
2023-05-07T03:34:59.664Z,100816.69
2023-05-07T03:40:02.027Z,100810.59
2023-05-07T03:45:04.833Z,100819.31
2023-05-07T03:50:06.292Z,100825.28
2023-05-07T03:55:09.244Z,100824.44
2023-05-07T04:00:13.512Z,100821.84
2023-05-07T04:05:23.158Z,100825.28
2023-05-07T04:10:29.184Z,100825.28
2023-05-07T04:15:31.133Z,100829.59
2023-05-07T04:20:31.829Z,100828.72
2023-05-07T04:25:38.650Z,100838.19
2023-05-07T04:30:47.601Z,100828.50
2023-05-07T04:35:48.942Z,100852.59
2023-05-07T04:40:51.454Z,100844.75
2023-05-07T04:45:55.760Z,100853.47
2023-05-07T04:50:59.177Z,100863.97
2023-05-07T04:56:01.485Z,100867.56
2023-05-07T05:01:09.001Z,100874.41
2023-05-07T05:06:09.792Z,100877.06
2023-05-07T05:11:12.486Z,100881.47
2023-05-07T05:16:13.643Z,100869.19
2023-05-07T05:21:15.202Z,100886.66
2023-05-07T05:26:19.616Z,100881.31
2023-05-07T05:31:20.409Z,100882.97
2023-05-07T05:36:23.501Z,100892.50
2023-05-07T05:41:28.613Z,100904.78
2023-05-07T05:46:29.882Z,100901.25
2023-05-07T05:51:32.435Z,100910.81
2023-05-07T05:56:34.913Z,100912.53
2023-05-07T06:01:36.599Z,100924.53
2023-05-07T06:06:41.330Z,100918.38
2023-05-07T06:11:43.962Z,100926.88
2023-05-07T06:16:46.338Z,100931.91
2023-05-07T06:21:47.048Z,100931.06
2023-05-07T06:26:49.076Z,100940.31
2023-05-07T06:31:49.860Z,100936.97
2023-05-07T06:36:50.887Z,100933.56
2023-05-07T06:42:06.916Z,100932.97
2023-05-07T06:47:08.114Z,100938.13
2023-05-07T06:52:10.398Z,100954.59
2023-05-07T06:57:12.664Z,100956.34
2023-05-07T07:02:13.421Z,100946.78
2023-05-07T07:07:20.816Z,100973.00
2023-05-07T07:12:26.978Z,100961.91
2023-05-07T07:17:28.301Z,100948.75
2023-05-07T07:22:30.054Z,100963.28
2023-05-07T07:27:32.289Z,100958.69
2023-05-07T07:32:34.487Z,100964.44
2023-05-07T07:37:35.373Z,100967.13
2023-05-07T07:42:37.353Z,100975.84
2023-05-07T07:47:38.398Z,100972.78
2023-05-07T07:52:39.327Z,100978.00
2023-05-07T07:57:43.076Z,100985.34
2023-05-07T08:02:44.311Z,100986.25
2023-05-07T08:07:53.022Z,100991.50
2023-05-07T08:12:58.672Z,100991.16
2023-05-07T08:18:01.309Z,100994.31
2023-05-07T08:23:02.750Z,100995.25
2023-05-07T08:28:05.815Z,100997.72
2023-05-07T08:33:07.420Z,101003.75
2023-05-07T08:38:08.207Z,101001.63
2023-05-07T08:43:14.761Z,101001.22
2023-05-07T08:48:18.136Z,100999.22
2023-05-07T08:53:25.555Z,101007.34
2023-05-07T08:58:27.984Z,101012.88
2023-05-07T09:03:28.717Z,101013.44
2023-05-07T09:08:31.207Z,101010.94
2023-05-07T09:13:37.135Z,101016.25
2023-05-07T09:18:42.906Z,101023.00
2023-05-07T09:23:46.150Z,101018.25
2023-05-07T09:28:50.059Z,101029.78
2023-05-07T09:33:51.204Z,101030.94
2023-05-07T09:38:53.100Z,101024.78
2023-05-07T09:43:57.538Z,101019.59
2023-05-07T09:49:04.592Z,101022.75
2023-05-07T09:54:09.056Z,101031.16
2023-05-07T09:59:16.544Z,101033.00
2023-05-07T10:04:19.568Z,101031.13
2023-05-07T10:09:20.816Z,101029.22
2023-05-07T10:14:23.963Z,101026.56
2023-05-07T10:19:26.273Z,101025.78
2023-05-07T10:24:34.960Z,101026.03
2023-05-07T10:29:51.563Z,101021.06
2023-05-07T10:34:57.256Z,101021.22
2023-05-07T10:39:58.823Z,101015.97
2023-05-07T10:45:15.653Z,101018.63
2023-05-07T10:50:24.168Z,101011.25
2023-05-07T10:55:28.701Z,101006.06
2023-05-07T11:01:01.227Z,100998.38
2023-05-07T11:06:12.630Z,101000.38
2023-05-07T11:11:48.623Z,101003.81
2023-05-07T11:17:16.516Z,100998.69
2023-05-07T11:22:40.904Z,100998.63
2023-05-07T11:27:50.587Z,101000.69
2023-05-07T11:32:52.879Z,101003.41
2023-05-07T11:38:01.337Z,101000.28
2023-05-07T11:43:12.529Z,101002.59
2023-05-07T11:48:15.029Z,101000.25
2023-05-07T11:53:15.740Z,101008.53
2023-05-07T11:58:24.011Z,100996.41
2023-05-07T12:03:26.633Z,101001.06
2023-05-07T12:08:28.499Z,101003.31
2023-05-07T12:13:29.166Z,100997.56
2023-05-07T12:18:32.251Z,100994.31
2023-05-07T12:23:34.938Z,100999.13
2023-05-07T12:28:39.689Z,101009.94
2023-05-07T12:33:41.999Z,101002.19
2023-05-07T12:38:43.177Z,101022.09
2023-05-07T12:43:46.585Z,101012.00
2023-05-07T12:48:51.198Z,101008.97
2023-05-07T12:53:52.057Z,100990.44
2023-05-07T12:58:52.671Z,100999.09
2023-05-07T13:03:54.699Z,100991.41
2023-05-07T13:08:56.230Z,100999.06
2023-05-07T13:13:56.903Z,100986.72
2023-05-07T13:18:59.294Z,100983.41
2023-05-07T13:23:59.995Z,100976.88
2023-05-07T13:29:00.725Z,100986.34
2023-05-07T13:34:02.775Z,100975.78
2023-05-07T13:39:03.525Z,100974.81
2023-05-07T13:44:04.229Z,100983.56
2023-05-07T13:49:06.263Z,100970.16
2023-05-07T13:54:06.955Z,100959.63
2023-05-07T13:59:07.680Z,100977.00
2023-05-07T14:04:09.800Z,100966.91
2023-05-07T14:09:13.172Z,100978.44
2023-05-07T14:14:13.938Z,100970.00
2023-05-07T14:19:16.046Z,100970.75
2023-05-07T14:24:27.145Z,100967.13
2023-05-07T14:29:36.560Z,100968.22
2023-05-07T14:34:38.862Z,100966.84
2023-05-07T14:39:39.604Z,100975.63
2023-05-07T14:44:41.509Z,100959.22
2023-05-07T14:49:43.989Z,100964.38
2023-05-07T14:54:44.767Z,100953.41
2023-05-07T14:59:45.531Z,100968.53
2023-05-07T15:04:47.713Z,100969.41
2023-05-07T15:09:48.389Z,100981.00
2023-05-07T15:14:49.072Z,100966.78
2023-05-07T15:19:52.021Z,100975.75
2023-05-07T15:24:56.093Z,100984.28
2023-05-07T15:29:56.811Z,100981.38
2023-05-07T15:34:58.974Z,100993.47
2023-05-07T15:39:59.666Z,100988.75
2023-05-07T15:45:01.415Z,100999.53
2023-05-07T15:50:03.573Z,101004.47
2023-05-07T15:55:04.593Z,101006.91
2023-05-07T16:00:09.742Z,101006.28
2023-05-07T16:05:14.927Z,101007.94
2023-05-07T16:10:15.756Z,101009.78
2023-05-07T16:15:16.650Z,100993.91
2023-05-07T16:20:21.835Z,101005.81
2023-05-07T16:25:22.832Z,100995.84
2023-05-07T16:30:23.509Z,101003.88
2023-05-07T16:35:25.570Z,101016.78
2023-05-07T16:40:26.629Z,101011.31
2023-05-07T16:45:30.394Z,101004.41
2023-05-07T16:50:32.649Z,101009.34
2023-05-07T16:55:38.715Z,101026.06
2023-05-07T17:05:46.164Z,101017.72
2023-05-07T17:10:47.366Z,101023.88
2023-05-07T17:15:48.591Z,101019.03
2023-05-07T17:20:50.694Z,101023.91
2023-05-07T17:25:51.483Z,101027.97
2023-05-07T17:30:52.199Z,101041.47
2023-05-07T17:35:55.853Z,101039.69
2023-05-07T17:40:56.561Z,101045.50
2023-05-07T17:45:57.238Z,101049.78
2023-05-07T17:51:03.799Z,101050.50
2023-05-07T17:56:07.190Z,101046.66
2023-05-07T18:01:07.965Z,101065.56
2023-05-07T18:06:10.310Z,101065.63
2023-05-07T18:11:11.429Z,101069.53
2023-05-07T18:16:12.197Z,101079.00
2023-05-07T18:21:18.807Z,101094.88
2023-05-07T18:26:19.554Z,101098.66
2023-05-07T18:31:20.704Z,101105.78
2023-05-07T18:36:24.914Z,101097.25
2023-05-07T18:41:25.735Z,101109.44
2023-05-07T18:46:26.581Z,101116.41
2023-05-07T18:51:28.621Z,101119.13
2023-05-07T18:56:29.375Z,101137.34
2023-05-07T19:01:30.395Z,101131.34
2023-05-07T19:06:33.673Z,101140.91
2023-05-07T19:11:34.548Z,101133.09
2023-05-07T19:16:35.381Z,101127.91
2023-05-07T19:21:37.670Z,101134.84
2023-05-07T19:26:39.696Z,101145.28
2023-05-07T19:31:40.376Z,101152.22
2023-05-07T19:36:42.491Z,101151.34
2023-05-07T19:41:43.215Z,101153.97
2023-05-07T19:46:45.789Z,101160.88
2023-05-07T19:51:47.923Z,101171.31
2023-05-07T19:56:48.660Z,101179.94
2023-05-07T20:01:49.510Z,101186.88
2023-05-07T20:06:51.553Z,101187.75
2023-05-07T20:11:52.235Z,101202.47
2023-05-07T20:16:52.919Z,101202.44
2023-05-07T20:21:54.940Z,101211.97
2023-05-07T20:26:55.652Z,101213.69
2023-05-07T20:31:56.432Z,101211.09
2023-05-07T20:36:58.445Z,101222.31
2023-05-07T20:42:00.162Z,101216.28
2023-05-07T20:47:00.960Z,101230.16
2023-05-07T20:52:03.041Z,101227.59
2023-05-07T20:57:03.779Z,101229.34
2023-05-07T21:02:04.614Z,101226.75
2023-05-07T21:07:07.063Z,101230.19
2023-05-07T21:12:08.106Z,101226.75
2023-05-07T21:17:09.021Z,101234.50
2023-05-07T21:22:11.156Z,101223.19
2023-05-07T21:27:11.864Z,101225.66
2023-05-07T21:32:13.600Z,101237.78
2023-05-07T21:37:15.902Z,101235.16
2023-05-07T21:42:16.572Z,101237.75
2023-05-07T21:47:17.340Z,101246.31
2023-05-07T21:52:19.351Z,101241.13
2023-05-07T21:57:20.100Z,101249.72
2023-05-07T22:02:21.117Z,101250.53
2023-05-07T22:07:23.120Z,101264.31
2023-05-07T22:12:23.780Z,101261.72
2023-05-07T22:17:24.697Z,101253.06
2023-05-07T22:22:26.679Z,101251.28
2023-05-07T22:27:27.428Z,101255.53
2023-05-07T22:32:28.088Z,101254.75
2023-05-07T22:37:30.162Z,101247.81
2023-05-07T22:42:30.801Z,101249.50
2023-05-07T22:47:31.856Z,101255.53
2023-05-07T22:52:34.099Z,101252.88
2023-05-07T22:57:34.779Z,101253.75
2023-05-07T23:02:35.533Z,101253.66
2023-05-07T23:07:37.616Z,101251.94
2023-05-07T23:12:38.312Z,101254.53
2023-05-07T23:17:39.039Z,101250.31
2023-05-07T23:22:41.081Z,101248.63
2023-05-07T23:27:41.761Z,101243.56
2023-05-07T23:32:42.685Z,101252.25
2023-05-07T23:37:44.690Z,101249.66
2023-05-07T23:42:45.336Z,101249.63
2023-05-07T23:47:46.282Z,101250.34
2023-05-07T23:52:48.335Z,101253.69
2023-05-07T23:57:48.951Z,101238.91
